ADDS METAR Data INFO
IDs: Format: Raw Decoded Include TAF

Data at: 0056 UTC 22 Oct 2017

KBDN 220035Z AUTO 19019G27KT 10SM FEW037 SCT046 SCT055 13/07 A2996 RMK AO2
KBDN 220015Z AUTO 20020G25KT 10SM SCT047 SCT055 13/07 A2996 RMK AO2
KBDN 212355Z AUTO 20020KT 10SM FEW048 FEW055 FEW110 13/07 A2996 RMK AO2
KBDN 212335Z AUTO 20016G24KT 10SM CLR 13/07 A2995 RMK AO2
KBDN 212315Z AUTO 19021G27KT 10SM FEW055 12/07 A2994 RMK AO2
KBDN 212255Z AUTO 19024KT 10SM SCT055 13/07 A2994 RMK AO2
KBDN 212235Z AUTO 20021G28KT 10SM FEW048 FEW055 FEW075 12/06 A2995 RMK AO2
KBDN 212215Z AUTO 20017G24KT 10SM CLR 12/07 A2996 RMK AO2
KBDN 212155Z AUTO 21015G25KT 10SM -DZ CLR 11/06 A2995 RMK AO2
KBDN 212135Z AUTO 21017G23KT 10SM CLR 11/06 A2996 RMK AO2
KBDN 212115Z AUTO 22016G27KT 10SM CLR 11/06 A2995 RMK AO2
KBDN 212055Z AUTO 21016G24KT 10SM CLR 11/06 A2996 RMK AO2
KBDN 212035Z AUTO 21016G22KT 10SM CLR 10/05 A2996 RMK AO2
KBDN 212015Z AUTO 21017G29KT 10SM CLR 11/05 A2996 RMK AO2
KBDN 211955Z AUTO 21017G23KT 10SM FEW080 11/05 A2996 RMK AO2
KBDN 211935Z AUTO 20018G27KT 10SM FEW080 10/05 A2996 RMK AO2
KBDN 211915Z AUTO 19014G23KT 10SM CLR 10/04 A2996 RMK AO2
KBDN 211855Z AUTO 20015KT 10SM CLR 09/04 A2996 RMK AO2
KBDN 211835Z AUTO 19015KT 10SM CLR 09/04 A2996 RMK AO2
KBDN 211815Z AUTO 20013G21KT 10SM CLR 08/03 A2996 RMK AO2
KBDN 211755Z AUTO 20016KT 10SM CLR 08/03 A2996 RMK AO2
KBDN 211735Z AUTO 20017KT 10SM CLR 08/03 A2996 RMK AO2
KBDN 211715Z AUTO 20017G25KT 10SM CLR 07/03 A2995 RMK AO2
KBDN 211655Z AUTO 20014G23KT 10SM CLR 07/03 A2995 RMK AO2
KBDN 211635Z AUTO 19015G21KT 10SM CLR 07/02 A2994 RMK AO2
KBDN 211615Z AUTO 20013KT 10SM CLR 06/02 A2995 RMK AO2
KBDN 211555Z AUTO 19013G19KT 10SM CLR 06/02 A2995 RMK AO2
KBDN 211535Z AUTO 19011KT 10SM CLR 05/02 A2995 RMK AO2
KBDN 211515Z AUTO 19009KT 10SM CLR 04/02 A2995 RMK AO2
KBDN 211455Z AUTO 16005G10KT 10SM FEW021 SCT070 04/01 A2994 RMK AO2 P0001
KBDN 211435Z AUTO 15005KT 10SM -DZ BKN020 SCT026 03/01 A2995 RMK AO2
KBDN 211415Z AUTO 16005KT 10SM BKN020 BKN026 03/01 A2995 RMK AO2
KBDN 211355Z AUTO 14004KT 9SM -DZ SCT018 BKN023 03/01 A2996 RMK AO2 P0001
KBDN 211335Z AUTO 15006KT 9SM -RA SCT017 OVC023 03/01 A2996 RMK AO2
KBDN 211315Z AUTO 16007KT 9SM -RA SCT016 OVC023 03/01 A2996 RMK AO2
KBDN 211255Z AUTO 14005KT 9SM -RA BKN017 BKN022 04/01 A2996 RMK AO2
KBDN 211235Z AUTO 18008KT 10SM -DZ CLR 04/01 A2996 RMK AO2
KBDN 211215Z AUTO 18010KT 10SM -RA SCT019 SCT024 04/01 A2997 RMK AO2
KBDN 211155Z AUTO 18011KT 10SM FEW022 05/M00 A2997 RMK AO2
KBDN 211135Z AUTO 18012KT 10SM FEW023 05/M00 A2998 RMK AO2
KBDN 211115Z AUTO 18012KT 10SM CLR 05/M01 A2998 RMK AO2
KBDN 211055Z AUTO 19012G18KT 10SM CLR 05/M01 A2998 RMK AO2
KBDN 211035Z AUTO 19013KT 10SM CLR 05/M02 A2999 RMK AO2
KBDN 211015Z AUTO 17009KT 10SM CLR 05/M02 A3000 RMK AO2
KBDN 210955Z AUTO 18010KT 10SM CLR 05/M02 A3000 RMK AO2
KBDN 210935Z AUTO 17008G14KT 10SM CLR 05/M02 A3001 RMK AO2
KBDN 210915Z AUTO 18013KT 10SM CLR 05/M02 A3000 RMK AO2
KBDN 210855Z AUTO 19013KT 10SM CLR 05/M02 A3001 RMK AO2
KBDN 210835Z AUTO 18009KT 10SM CLR 05/M01 A3001 RMK AO2
KBDN 210815Z AUTO 19010KT 10SM CLR 05/M01 A3002 RMK AO2
KBDN 210755Z AUTO 19013KT CLR 04/M01 A3002 RMK AO2
KBDN 210735Z AUTO 18008KT 10SM CLR 04/M02 A3002 RMK AO2
KBDN 210715Z AUTO 18011KT 10SM FEW055 04/M01 A3003 RMK AO2
KBDN 210655Z AUTO 17012KT 10SM BKN060 04/M01 A3002 RMK AO2
KBDN 210635Z AUTO 18011KT 10SM OVC060 04/M01 A3003 RMK AO2
KBDN 210615Z AUTO 21012KT 10SM BKN060 04/M01 A3002 RMK AO2
KBDN 210555Z AUTO 21011KT 10SM CLR 04/M01 A3002 RMK AO2
KBDN 210535Z AUTO 20011G18KT 10SM FEW070 04/M00 A3002 RMK AO2
KBDN 210515Z AUTO 20014KT 10SM SCT070 04/M00 A3002 RMK AO2
KBDN 210455Z AUTO 20011KT 10SM SCT080 04/M01 A3002 RMK AO2
KBDN 210435Z AUTO 20013KT 10SM FEW070 SCT085 04/M01 A3002 RMK AO2
KBDN 210415Z AUTO 21010KT 10SM FEW070 04/M01 A3002 RMK AO2
KBDN 210355Z AUTO 21004KT 10SM CLR 03/M01 A3002 RMK AO2
KBDN 210335Z AUTO 00000KT 10SM CLR 03/M01 A3002 RMK AO2
KBDN 210315Z AUTO VRB04KT 10SM CLR 03/M01 A3002 RMK AO2
KBDN 210255Z AUTO VRB05KT 10SM CLR 03/M00 A3001 RMK AO2
KBDN 210235Z AUTO 22004KT 10SM CLR 03/M00 A3001 RMK AO2
KBDN 210215Z AUTO 00000G10KT 10SM CLR 03/M00 A3001 RMK AO2
KBDN 210155Z AUTO 23008G14KT 10SM CLR 04/M01 A3000 RMK AO2
KBDN 210135Z AUTO 20007KT 10SM CLR 04/M02 A2999 RMK AO2
KBDN 210115Z AUTO 20007KT 10SM CLR 05/M02 A2998 RMK AO2
KBDN 210055Z AUTO 23010KT 10SM CLR 05/M03 A2997 RMK AO2
KBDN 210035Z AUTO 23009KT 10SM CLR 06/M03 A2996 RMK AO2
KBDN 210015Z AUTO 22011G18KT 10SM CLR 07/M03 A2996 RMK AO2
KBDN 202355Z AUTO 24015G21KT 10SM CLR 08/M03 A2996 RMK AO2
KBDN 202335Z AUTO 25016G21KT 10SM CLR 08/M04 A2994 RMK AO2
KBDN 202315Z AUTO 23019G25KT 10SM CLR 08/M02 A2993 RMK AO2
KBDN 202255Z AUTO 24018KT 10SM CLR 08/M01 A2992 RMK AO2
KBDN 202235Z AUTO 25015G24KT 10SM CLR 08/M01 A2992 RMK AO2
KBDN 202215Z AUTO 23010G18KT 10SM CLR 09/M02 A2991 RMK AO2
KBDN 202155Z AUTO 23012G20KT 10SM FEW049 FEW060 09/M03 A2990 RMK AO2
KBDN 202135Z AUTO 22017G22KT 10SM SCT060 10/M04 A2989 RMK AO2
KBDN 202115Z AUTO 25015G23KT 10SM CLR 09/M05 A2989 RMK AO2
KBDN 202055Z AUTO 26015G26KT 10SM CLR 10/M06 A2987 RMK AO2
KBDN 202035Z AUTO 23013G20KT 10SM CLR 08/M02 A2987 RMK AO2
KBDN 202015Z AUTO 22015G22KT 10SM SCT048 SCT055 10/M02 A2987 RMK AO2
KBDN 201955Z AUTO 23017G27KT 10SM FEW049 SCT060 11/M02 A2987 RMK AO2
KBDN 201935Z AUTO 24013G21KT 10SM CLR 09/M02 A2985 RMK AO2
KBDN 201915Z AUTO 25010KT 10SM FEW055 09/M01 A2985 RMK AO2
KBDN 201855Z AUTO 25013G22KT 10SM FEW046 SCT060 09/M02 A2984 RMK AO2
KBDN 201835Z AUTO 24018G25KT 210V270 10SM SCT047 BKN060 BKN070 10/M03 A2982 RMK AO2
KBDN 201815Z AUTO 23016G24KT 10SM FEW050 SCT065 10/M02 A2982 RMK AO2
KBDN 201755Z AUTO 22017KT 10SM FEW055 SCT070 10/M01 A2981 RMK AO2
KBDN 201735Z AUTO 22009G15KT 10SM FEW055 09/M00 A2981 RMK AO2
KBDN 201715Z AUTO 21013G19KT 10SM FEW050 08/M00 A2981 RMK AO2 LTG DSNT W
KBDN 201655Z AUTO 21014G21KT 10SM SCT055 SCT065 08/M00 A2980 RMK AO2
KBDN 201635Z AUTO 21011G20KT 10SM SCT060 07/00 A2980 RMK AO2
KBDN 201615Z AUTO 20015G21KT 10SM FEW060 06/00 A2979 RMK AO2
KBDN 201555Z AUTO 21015G20KT 10SM FEW060 06/00 A2978 RMK AO2
KBDN 201535Z AUTO 20011G17KT 10SM FEW055 FEW070 05/00 A2977 RMK AO2
KBDN 201515Z AUTO 20012KT 10SM FEW055 SCT065 05/00 A2976 RMK AO2
KBDN 201455Z AUTO 20010G16KT 10SM FEW060 05/M00 A2976 RMK AO2
KBDN 201435Z AUTO 20015KT 10SM SCT055 05/00 A2975 RMK AO2
KBDN 201415Z AUTO 20010KT 10SM SCT055 05/M00 A2974 RMK AO2
KBDN 201355Z AUTO 20011KT 10SM SCT055 SCT065 05/00 A2973 RMK AO2
KBDN 201335Z AUTO 20012G18KT 10SM CLR 04/00 A2971 RMK AO2
KBDN 201315Z AUTO 20015KT 10SM CLR 04/00 A2970 RMK AO2